Time;durP1;ratioP1;P1;durP2;ratioP2;P2;SDS_P1;SDS_P2;PMS_P1;PMS_P2;Temp;Humidity;BMP_temperature;BMP_pressure;BME280_temperature;BME280_humidity;BME280_pressure;Samples;Min_cycle;Max_cycle;Signal;HPM_P1;HPM_P2
2021/05/26 00:02:04;;;;;;;11.38;5.95;;;;;;;13.71;72.81;100472.17;1715028;83;21612;-77
2021/05/26 00:04:31;;;;;;;10.63;5.92;;;;;;;13.70;72.86;100469.62;1718628;83;21537;-77
2021/05/26 00:06:58;;;;;;;9.33;6.10;;;;;;;13.68;72.86;100464.95;1653983;86;21172;-78
2021/05/26 00:09:24;;;;;;;8.35;5.70;;;;;;;13.66;73.00;100463.77;1699655;83;21039;-77
2021/05/26 00:11:51;;;;;;;10.80;6.45;;;;;;;13.65;73.08;100466.57;1718565;83;22410;-78
2021/05/26 00:14:17;;;;;;;8.30;6.80;;;;;;;13.61;73.10;100462.04;1681657;83;20983;-78
2021/05/26 00:16:45;;;;;;;10.20;6.50;;;;;;;13.60;73.16;100466.13;1665760;86;21039;-78
2021/05/26 00:19:13;;;;;;;14.75;7.37;;;;;;;13.58;73.17;100466.28;1687435;83;21528;-78
2021/05/26 00:21:41;;;;;;;9.33;6.60;;;;;;;13.56;73.31;100469.56;1687427;83;21002;-78
2021/05/26 00:24:09;;;;;;;10.78;6.90;;;;;;;13.54;73.42;100462.73;1715219;83;21778;-78
2021/05/26 00:26:36;;;;;;;12.50;7.47;;;;;;;13.51;73.50;100462.52;1676501;83;21089;-79
2021/05/26 00:29:04;;;;;;;14.73;8.05;;;;;;;13.52;73.55;100466.85;1672644;83;21079;-78
2021/05/26 00:31:31;;;;;;;15.90;8.20;;;;;;;13.51;73.52;100469.16;1687915;83;21044;-78
2021/05/26 00:33:57;;;;;;;9.63;7.05;;;;;;;13.52;73.64;100466.02;1690528;83;21051;-78
2021/05/26 00:36:24;;;;;;;13.58;7.33;;;;;;;13.54;73.61;100470.20;1720366;83;21740;-79
2021/05/26 00:38:51;;;;;;;15.40;9.05;;;;;;;13.53;73.59;100469.85;1717351;83;20969;-79
2021/05/26 00:41:17;;;;;;;15.28;9.53;;;;;;;13.53;73.74;100476.48;1704768;83;20971;-78
2021/05/26 00:43:44;;;;;;;16.02;9.75;;;;;;;13.57;73.88;100481.85;1718810;83;21007;-79
2021/05/26 00:46:11;;;;;;;14.70;9.33;;;;;;;13.61;73.90;100477.13;1709613;83;21011;-78
2021/05/26 00:48:39;;;;;;;10.88;8.38;;;;;;;13.67;73.87;100474.73;1666210;83;21712;-78
2021/05/26 00:51:05;;;;;;;13.22;9.35;;;;;;;13.68;73.78;100477.73;1694835;83;21083;-78
2021/05/26 00:53:33;;;;;;;12.58;8.83;;;;;;;13.63;73.65;100474.67;1674684;83;21516;-78
2021/05/26 00:56:00;;;;;;;13.55;8.65;;;;;;;13.58;73.59;100478.70;1672580;84;21051;-78
2021/05/26 00:58:27;;;;;;;16.15;8.68;;;;;;;13.56;73.62;100476.20;1686045;84;21039;-78
2021/05/26 01:00:55;;;;;;;12.73;8.73;;;;;;;13.55;73.59;100481.16;1701189;83;21741;-78
2021/05/26 01:03:23;;;;;;;13.50;10.38;;;;;;;13.54;73.58;100484.80;1722788;83;21111;-79
2021/05/26 01:05:49;;;;;;;15.15;10.45;;;;;;;13.56;73.54;100484.66;1689202;83;21019;-78
2021/05/26 01:08:18;;;;;;;16.12;9.40;;;;;;;13.62;73.44;100489.42;1716698;82;20991;-78
2021/05/26 01:10:47;;;;;;;12.85;8.43;;;;;;;13.64;73.36;100484.31;1690068;83;21473;-78
2021/05/26 01:13:14;;;;;;;12.45;8.28;;;;;;;13.63;73.21;100483.12;1687089;83;22121;-78
2021/05/26 01:15:42;;;;;;;11.85;8.18;;;;;;;13.57;73.02;100482.34;1696544;83;20996;-78
2021/05/26 01:18:30;;;;;;;14.78;8.58;;;;;;;13.49;73.01;100483.03;1678351;83;21489;-78
2021/05/26 01:21:01;;;;;;;19.75;9.80;;;;;;;13.43;73.03;100495.05;1697148;83;21601;-78
2021/05/26 01:23:28;;;;;;;13.13;9.30;;;;;;;13.39;73.29;100496.28;1679234;83;21098;-78
2021/05/26 01:26:02;;;;;;;12.58;8.98;;;;;;;13.39;73.42;100494.95;1659460;84;21805;-78
2021/05/26 01:28:30;;;;;;;11.05;8.83;;;;;;;13.43;73.57;100496.86;1675867;83;21008;-79
2021/05/26 01:30:57;;;;;;;13.43;9.33;;;;;;;13.47;73.66;100495.60;1699608;83;21051;-79
2021/05/26 01:33:26;;;;;;;12.53;8.63;;;;;;;13.52;73.93;100497.86;1699516;83;21605;-78
2021/05/26 01:35:53;;;;;;;13.75;8.65;;;;;;;13.56;74.05;100494.77;1679540;83;21541;-79
2021/05/26 01:38:22;;;;;;;13.32;8.88;;;;;;;13.58;73.96;100494.14;1695906;83;22249;-79
2021/05/26 01:40:50;;;;;;;11.25;8.08;;;;;;;13.61;73.88;100494.37;1679825;84;20987;-79
2021/05/26 01:43:17;;;;;;;11.15;7.62;;;;;;;13.59;73.67;100494.48;1692272;83;20999;-79
2021/05/26 01:45:44;;;;;;;14.98;8.38;;;;;;;13.56;73.59;100497.92;1708338;83;21055;-78
2021/05/26 01:48:12;;;;;;;11.40;7.92;;;;;;;13.49;73.50;100496.30;1691752;83;21047;-78
2021/05/26 01:50:38;;;;;;;11.68;7.87;;;;;;;13.44;73.54;100494.07;1674269;83;21756;-78
2021/05/26 01:53:07;;;;;;;14.10;7.67;;;;;;;13.39;73.52;100499.42;1700513;83;21031;-78
2021/05/26 01:55:37;;;;;;;8.48;7.17;;;;;;;13.36;73.56;100495.73;1691950;83;21063;-78
2021/05/26 01:58:04;;;;;;;11.88;6.87;;;;;;;13.33;73.63;100492.03;1687599;83;21063;-78
2021/05/26 02:00:33;;;;;;;8.70;6.70;;;;;;;13.35;73.69;100494.05;1697308;83;21660;-78
2021/05/26 02:03:01;;;;;;;12.05;7.75;;;;;;;13.36;73.71;100494.40;1687907;83;21723;-78
2021/05/26 02:05:28;;;;;;;9.33;7.35;;;;;;;13.34;73.65;100490.56;1696820;83;21087;-78
2021/05/26 02:07:55;;;;;;;10.40;6.83;;;;;;;13.33;73.57;100496.84;1696977;83;21078;-78
2021/05/26 02:13:09;;;;;;;9.70;6.90;;;;;;;13.27;73.63;100497.87;1705588;83;21086;-78
2021/05/26 02:15:39;;;;;;;13.72;6.97;;;;;;;13.24;74.01;100498.15;1697338;83;22215;-78
2021/05/26 02:18:07;;;;;;;11.97;7.30;;;;;;;13.25;74.05;100501.98;1686766;83;21049;-78
2021/05/26 02:20:34;;;;;;;8.73;6.53;;;;;;;13.26;74.00;100499.68;1683049;83;21114;-78
2021/05/26 02:23:00;;;;;;;8.70;6.45;;;;;;;13.25;74.17;100494.03;1712112;83;21513;-78
2021/05/26 02:25:28;;;;;;;8.33;7.17;;;;;;;13.29;74.51;100494.59;1703108;83;20979;-77
2021/05/26 02:27:55;;;;;;;8.58;6.80;;;;;;;13.32;74.68;100498.31;1720547;83;21656;-78
2021/05/26 02:30:23;;;;;;;9.65;6.85;;;;;;;13.36;74.74;100501.87;1688175;83;20903;-78
2021/05/26 02:32:51;;;;;;;9.43;6.90;;;;;;;13.37;74.91;100498.23;1673702;84;20964;-78
2021/05/26 02:35:18;;;;;;;10.03;6.78;;;;;;;13.42;75.02;100501.82;1687822;83;21027;-78
2021/05/26 02:37:45;;;;;;;9.58;6.22;;;;;;;13.46;75.20;100504.05;1690156;83;21617;-78
2021/05/26 02:40:13;;;;;;;7.47;6.37;;;;;;;13.52;75.22;100500.52;1689096;83;21820;-78
2021/05/26 02:42:39;;;;;;;8.90;6.58;;;;;;;13.54;75.19;100505.19;1675981;83;21031;-78
2021/05/26 02:45:09;;;;;;;9.70;6.37;;;;;;;13.55;75.16;100503.72;1684573;83;21024;-78
2021/05/26 02:47:36;;;;;;;8.28;6.42;;;;;;;13.56;75.17;100504.06;1694868;83;21043;-77
2021/05/26 02:50:05;;;;;;;9.35;6.83;;;;;;;13.56;75.27;100506.72;1675475;83;21609;-78
2021/05/26 02:52:33;;;;;;;8.33;6.37;;;;;;;13.58;75.30;100506.09;1684305;83;22193;-78
2021/05/26 02:55:01;;;;;;;10.72;6.45;;;;;;;13.60;75.34;100508.11;1674274;83;21474;-78
2021/05/26 02:57:28;;;;;;;8.68;6.58;;;;;;;13.64;75.36;100510.02;1695864;83;20984;-78
2021/05/26 03:00:12;;;;;;;8.93;6.42;;;;;;;13.66;75.38;100508.89;1643198;83;21060;-78
2021/05/26 03:02:46;;;;;;;9.33;6.40;;;;;;;13.69;75.37;100511.75;1718217;83;21525;-78
2021/05/26 03:05:14;;;;;;;7.75;6.47;;;;;;;13.72;75.36;100517.64;1686488;83;22314;-78
2021/05/26 03:07:41;;;;;;;10.82;6.28;;;;;;;13.75;75.30;100514.70;1688564;83;20987;-79
2021/05/26 03:10:11;;;;;;;10.03;6.97;;;;;;;13.79;75.29;100505.13;1681142;83;21490;-79
2021/05/26 03:12:40;;;;;;;7.37;6.30;;;;;;;13.82;75.26;100509.69;1692347;83;21577;-79
2021/05/26 03:15:13;;;;;;;10.63;6.65;;;;;;;13.85;75.21;100506.73;1681454;83;21003;-79
2021/05/26 03:17:40;;;;;;;7.65;6.60;;;;;;;13.89;75.14;100505.96;1704745;83;21772;-79
2021/05/26 03:20:11;;;;;;;10.18;6.37;;;;;;;13.92;75.07;100504.38;1690628;83;21062;-78
2021/05/26 03:22:56;;;;;;;11.45;7.10;;;;;;;13.97;75.04;100510.92;1671170;83;21023;-78
2021/05/26 03:25:41;;;;;;;9.28;7.25;;;;;;;14.01;75.13;100512.83;1688395;83;20987;-78
2021/05/26 03:28:09;;;;;;;10.75;7.75;;;;;;;14.06;75.20;100505.75;1714495;83;21062;-79
2021/05/26 03:30:36;;;;;;;9.93;7.10;;;;;;;14.11;75.22;100508.84;1699126;83;21726;-79
2021/05/26 03:33:04;;;;;;;11.12;7.20;;;;;;;14.16;75.26;100512.73;1715708;83;21088;-76
2021/05/26 03:35:32;;;;;;;11.78;6.70;;;;;;;14.20;75.29;100508.83;1718023;83;21000;-75
2021/05/26 03:38:00;;;;;;;11.03;7.15;;;;;;;14.27;75.30;100516.56;1682845;83;21523;-75
2021/05/26 03:40:28;;;;;;;7.97;6.65;;;;;;;14.32;75.28;100520.13;1663846;86;20987;-75
2021/05/26 03:42:56;;;;;;;8.48;6.03;;;;;;;14.37;75.36;100520.53;1672597;85;22523;-74
2021/05/26 03:45:39;;;;;;;9.33;6.40;;;;;;;14.43;75.41;100517.80;1697739;83;20984;-73
2021/05/26 03:48:08;;;;;;;8.65;6.03;;;;;;;14.50;75.34;100518.95;1685844;83;21046;-75
2021/05/26 03:50:35;;;;;;;12.35;6.10;;;;;;;14.56;75.27;100524.51;1691944;83;21025;-75
2021/05/26 03:53:05;;;;;;;7.60;5.40;;;;;;;14.64;75.24;100521.13;1675324;83;21107;-73
2021/05/26 03:55:33;;;;;;;7.37;5.37;;;;;;;14.71;75.23;100519.58;1668114;83;22571;-71
2021/05/26 03:58:19;;;;;;;8.68;5.17;;;;;;;14.78;75.20;100525.17;1620624;88;21535;-79
2021/05/26 04:00:47;;;;;;;7.85;5.40;;;;;;;14.87;75.13;100523.80;1628279;86;21061;-78
2021/05/26 04:03:15;;;;;;;6.58;4.87;;;;;;;14.94;75.04;100521.87;1668861;82;21042;-78
2021/05/26 04:05:42;;;;;;;8.33;4.87;;;;;;;15.04;75.00;100524.00;1703683;83;21608;-77
2021/05/26 04:08:09;;;;;;;6.37;4.78;;;;;;;15.11;74.89;100527.75;1727655;83;22371;-78
2021/05/26 04:10:38;;;;;;;7.95;4.92;;;;;;;15.20;74.78;100535.34;1683939;83;21023;-78
2021/05/26 04:13:06;;;;;;;9.63;4.72;;;;;;;15.28;74.52;100538.95;1686300;83;21051;-78
2021/05/26 04:15:35;;;;;;;9.60;4.50;;;;;;;15.36;74.32;100532.89;1698482;84;21094;-77
2021/05/26 04:18:21;;;;;;;9.38;4.80;;;;;;;15.43;74.18;100535.27;1676537;83;21010;-80
2021/05/26 04:20:49;;;;;;;7.78;4.97;;;;;;;15.55;74.20;100533.27;1677823;83;22342;-77
2021/05/26 04:23:17;;;;;;;7.08;4.80;;;;;;;15.63;74.13;100536.89;1673590;82;21087;-79
2021/05/26 04:25:50;;;;;;;5.58;4.70;;;;;;;15.71;73.96;100538.78;1706465;83;21075;-79
2021/05/26 04:28:14;;;;;;;8.28;4.53;;;;;;;15.81;73.77;100538.70;1722414;82;21062;-80
2021/05/26 04:30:42;;;;;;;8.48;4.50;;;;;;;15.91;73.62;100533.65;1713802;83;21153;-76
2021/05/26 04:33:09;;;;;;;5.10;4.12;;;;;;;16.01;73.49;100531.73;1705845;83;22523;-78
2021/05/26 04:35:36;;;;;;;9.08;4.55;;;;;;;16.12;73.35;100537.86;1701026;83;21035;-79
2021/05/26 04:38:03;;;;;;;8.28;4.70;;;;;;;16.22;73.10;100534.61;1701301;84;20987;-80
2021/05/26 04:40:30;;;;;;;5.00;4.10;;;;;;;16.31;72.85;100527.85;1684268;83;21058;-80
2021/05/26 04:42:56;;;;;;;6.97;4.15;;;;;;;16.41;72.65;100529.09;1673010;85;21043;-80
2021/05/26 04:45:23;;;;;;;6.95;4.20;;;;;;;16.50;72.47;100527.29;1679138;83;22528;-80
2021/05/26 04:47:49;;;;;;;8.98;4.28;;;;;;;16.60;72.41;100527.55;1688345;83;21011;-80
2021/05/26 04:50:16;;;;;;;6.03;4.00;;;;;;;16.70;72.18;100532.81;1673789;83;21015;-81
2021/05/26 04:52:42;;;;;;;8.20;4.25;;;;;;;16.79;71.99;100537.67;1696061;84;21015;-81
2021/05/26 04:55:12;;;;;;;8.38;4.20;;;;;;;16.90;71.34;100544.60;1695522;84;21007;-81
2021/05/26 04:57:38;;;;;;;10.98;4.03;;;;;;;17.01;71.01;100543.81;1697232;83;21773;-81
2021/05/26 05:00:07;;;;;;;5.83;4.00;;;;;;;17.14;70.85;100544.70;1703118;83;21110;-81
2021/05/26 05:02:34;;;;;;;8.55;4.30;;;;;;;17.25;70.59;100544.41;1674090;83;21082;-80
2021/05/26 05:05:01;;;;;;;10.38;4.37;;;;;;;17.35;70.21;100553.13;1695856;84;20991;-81
2021/05/26 05:07:27;;;;;;;5.15;4.17;;;;;;;17.44;69.61;100551.33;1683780;83;21564;-81
2021/05/26 05:09:54;;;;;;;12.03;4.25;;;;;;;17.52;69.24;100552.69;1670541;83;22522;-81
2021/05/26 05:12:21;;;;;;;5.05;3.25;;;;;;;17.60;68.98;100553.22;1673100;85;20999;-81
2021/05/26 05:14:49;;;;;;;13.30;3.72;;;;;;;17.69;68.10;100557.59;1663912;83;20998;-80
2021/05/26 05:17:16;;;;;;;6.35;3.83;;;;;;;17.76;67.38;100563.13;1705447;83;21110;-81
2021/05/26 05:19:42;;;;;;;7.22;3.40;;;;;;;17.84;67.29;100557.30;1688162;83;20982;-81
2021/05/26 05:22:10;;;;;;;9.18;3.50;;;;;;;17.93;67.43;100564.33;1685833;83;21782;-82
2021/05/26 05:24:38;;;;;;;5.55;2.40;;;;;;;18.00;67.31;100568.53;1692362;83;21482;-81
2021/05/26 05:27:05;;;;;;;10.48;3.22;;;;;;;18.07;67.16;100573.56;1689437;83;20995;-81
2021/05/26 05:29:32;;;;;;;9.23;3.35;;;;;;;18.09;66.97;100574.22;1679215;83;21078;-80
2021/05/26 05:31:58;;;;;;;4.08;3.20;;;;;;;18.15;67.20;100573.57;1673215;85;20987;-81
2021/05/26 05:34:25;;;;;;;7.87;3.75;;;;;;;18.21;66.72;100578.23;1685683;83;21734;-81
2021/05/26 05:36:51;;;;;;;5.80;3.02;;;;;;;18.26;67.04;100577.75;1697439;84;22359;-80
2021/05/26 05:39:18;;;;;;;6.35;3.30;;;;;;;18.33;67.31;100571.21;1676732;83;21038;-81
2021/05/26 05:41:45;;;;;;;7.60;2.98;;;;;;;18.40;67.11;100574.39;1701260;84;21087;-81
2021/05/26 05:44:11;;;;;;;4.55;2.60;;;;;;;18.47;66.84;100570.05;1699677;83;21504;-81
2021/05/26 05:46:38;;;;;;;6.33;2.50;;;;;;;18.55;66.37;100570.05;1673151;85;22268;-81
2021/05/26 05:49:04;;;;;;;6.67;2.62;;;;;;;18.62;66.12;100556.81;1677681;83;21078;-81
2021/05/26 05:51:31;;;;;;;4.15;2.22;;;;;;;18.70;64.58;100560.02;1676071;83;21270;-81
2021/05/26 05:53:57;;;;;;;4.87;2.02;;;;;;;18.76;63.32;100552.66;1683282;83;21070;-81
2021/05/26 05:56:23;;;;;;;5.72;2.45;;;;;;;18.81;61.78;100549.78;1694000;84;21067;-82
2021/05/26 05:58:50;;;;;;;2.27;1.50;;;;;;;18.88;60.24;100545.43;1699817;83;21695;-82
2021/05/26 06:01:16;;;;;;;3.15;1.72;;;;;;;18.96;58.20;100543.75;1697386;84;21086;-82
2021/05/26 06:03:43;;;;;;;4.58;1.70;;;;;;;19.08;57.83;100550.39;1679793;83;20971;-82
2021/05/26 06:06:10;;;;;;;3.02;1.80;;;;;;;19.18;55.94;100551.53;1682855;83;21150;-82
2021/05/26 06:08:36;;;;;;;3.47;2.20;;;;;;;19.29;56.36;100541.27;1700241;83;21103;-82
2021/05/26 06:11:02;;;;;;;5.10;2.27;;;;;;;19.40;57.03;100540.07;1681805;84;21728;-82
2021/05/26 06:13:31;;;;;;;3.50;1.92;;;;;;;19.49;56.13;100540.84;1690620;83;21018;-82
2021/05/26 06:15:57;;;;;;;2.90;2.00;;;;;;;19.57;55.75;100548.36;1695167;84;21102;-82
2021/05/26 06:18:23;;;;;;;6.72;2.45;;;;;;;19.66;54.97;100549.15;1703958;83;21106;-82
2021/05/26 06:20:50;;;;;;;2.77;2.17;;;;;;;19.73;55.12;100550.13;1681413;83;21007;-82
2021/05/26 06:23:18;;;;;;;3.30;2.70;;;;;;;19.80;54.64;100544.90;1682418;84;22506;-83
2021/05/26 06:25:45;;;;;;;3.58;2.70;;;;;;;19.88;55.15;100543.00;1634863;85;21099;-83
2021/05/26 06:28:12;;;;;;;4.45;3.12;;;;;;;19.98;55.97;100545.45;1697973;83;20983;-83
2021/05/26 06:30:39;;;;;;;4.50;2.87;;;;;;;20.07;55.76;100549.70;1688122;83;21134;-83
2021/05/26 06:33:06;;;;;;;3.00;2.55;;;;;;;20.15;56.30;100550.16;1689616;83;21081;-82
2021/05/26 06:35:33;;;;;;;5.05;2.72;;;;;;;20.25;55.64;100549.41;1685031;83;21646;-82
2021/05/26 06:37:59;;;;;;;4.37;2.70;;;;;;;20.36;55.11;100546.28;1680789;83;20994;-79
2021/05/26 06:40:26;;;;;;;3.27;2.67;;;;;;;20.42;55.23;100544.73;1685030;83;21037;-81
2021/05/26 06:42:53;;;;;;;5.80;2.90;;;;;;;20.48;54.90;100548.08;1686321;83;21078;-82
2021/05/26 06:45:20;;;;;;;6.03;2.87;;;;;;;20.52;54.96;100550.71;1694422;83;21054;-82
2021/05/26 06:47:46;;;;;;;5.17;2.75;;;;;;;20.55;55.44;100551.68;1664426;84;21798;-81
2021/05/26 06:50:14;;;;;;;5.75;2.40;;;;;;;20.56;55.00;100550.19;1661486;83;21181;-80
2021/05/26 06:52:42;;;;;;;4.83;2.65;;;;;;;20.61;55.20;100560.86;1690245;83;21061;-81
2021/05/26 06:55:10;;;;;;;3.35;2.65;;;;;;;20.68;55.36;100550.56;1666654;84;21007;-83
2021/05/26 06:57:36;;;;;;;3.77;3.10;;;;;;;20.72;55.59;100548.34;1682365;83;21035;-82
2021/05/26 07:00:05;;;;;;;3.47;2.67;;;;;;;20.77;55.33;100550.81;1688203;84;22280;-82
2021/05/26 07:02:32;;;;;;;3.90;2.83;;;;;;;20.82;55.35;100544.88;1684875;83;21508;-80
2021/05/26 07:04:58;;;;;;;4.70;3.70;;;;;;;20.88;54.96;100551.38;1684948;83;20978;-79
2021/05/26 07:07:27;;;;;;;4.33;3.30;;;;;;;20.95;55.26;100542.91;1681442;83;21158;-78
2021/05/26 07:09:54;;;;;;;4.35;3.40;;;;;;;21.02;55.88;100549.19;1688324;83;21110;-80
2021/05/26 07:12:20;;;;;;;5.92;3.83;;;;;;;21.09;55.81;100546.92;1701649;82;21850;-77
2021/05/26 07:14:49;;;;;;;8.38;4.08;;;;;;;21.19;55.33;100541.77;1694341;82;21038;-76
2021/05/26 07:17:15;;;;;;;7.40;3.75;;;;;;;21.22;54.74;100540.88;1698726;83;21106;-77
2021/05/26 07:19:43;;;;;;;10.20;3.85;;;;;;;21.27;55.82;100539.86;1689972;83;21047;-77
2021/05/26 07:22:09;;;;;;;8.60;3.87;;;;;;;21.35;54.14;100538.92;1695573;83;21023;-77
2021/05/26 07:24:36;;;;;;;7.15;3.83;;;;;;;21.38;54.74;100532.66;1692500;82;22278;-77
2021/05/26 07:27:03;;;;;;;5.00;3.80;;;;;;;21.45;54.91;100531.91;1689431;82;21082;-77
2021/05/26 07:29:29;;;;;;;4.50;3.62;;;;;;;21.54;55.41;100545.05;1688418;82;20982;-75
2021/05/26 07:31:56;;;;;;;4.78;3.60;;;;;;;21.62;54.52;100533.36;1674474;83;21106;-76
2021/05/26 07:34:22;;;;;;;4.92;3.40;;;;;;;21.67;53.66;100529.57;1690474;82;20999;-77
2021/05/26 07:36:49;;;;;;;4.20;3.80;;;;;;;21.67;53.46;100539.81;1689021;82;22260;-76
2021/05/26 07:39:16;;;;;;;8.05;3.95;;;;;;;21.66;54.71;100538.15;1659200;84;21066;-79
2021/05/26 07:41:42;;;;;;;6.47;3.87;;;;;;;21.75;54.67;100536.69;1678511;82;21090;-79
2021/05/26 07:44:09;;;;;;;6.65;4.10;;;;;;;21.83;54.08;100542.78;1691630;83;21203;-80
2021/05/26 07:46:35;;;;;;;5.45;4.05;;;;;;;21.85;54.01;100536.70;1684797;82;21074;-83
2021/05/26 07:49:02;;;;;;;4.92;3.90;;;;;;;21.88;54.48;100547.58;1686837;82;21786;-77
2021/05/26 07:51:30;;;;;;;4.25;3.65;;;;;;;21.88;53.79;100545.72;1693048;82;21005;-79
2021/05/26 07:53:57;;;;;;;6.08;4.10;;;;;;;21.85;53.91;100550.14;1677603;82;21639;-78
2021/05/26 07:56:24;;;;;;;4.92;3.98;;;;;;;21.84;54.51;100542.27;1691800;82;21608;-77
2021/05/26 07:58:52;;;;;;;6.72;4.28;;;;;;;21.89;54.59;100542.52;1694294;82;21082;-76
2021/05/26 08:01:18;;;;;;;4.97;4.15;;;;;;;21.97;54.41;100537.02;1685080;82;22191;-77
2021/05/26 08:03:47;;;;;;;5.90;4.00;;;;;;;22.05;53.87;100547.66;1666851;84;21038;-78
2021/05/26 08:06:14;;;;;;;4.67;3.70;;;;;;;22.14;53.54;100548.39;1683971;82;21098;-82
2021/05/26 08:08:40;;;;;;;7.50;3.92;;;;;;;22.12;53.57;100558.00;1690444;82;21024;-81
2021/05/26 08:11:07;;;;;;;5.05;3.85;;;;;;;22.09;52.92;100545.43;1688501;82;21090;-79
2021/05/26 08:13:34;;;;;;;7.90;3.85;;;;;;;22.03;52.50;100548.87;1680794;83;22188;-82
2021/05/26 08:16:02;;;;;;;6.95;3.80;;;;;;;21.94;52.69;100549.00;1663159;83;20986;-80
2021/05/26 08:18:29;;;;;;;7.12;3.92;;;;;;;21.89;53.01;100557.30;1700413;83;21066;-82
2021/05/26 08:20:57;;;;;;;5.97;3.87;;;;;;;21.89;53.62;100570.75;1677840;84;21616;-78
2021/05/26 08:23:26;;;;;;;5.62;3.90;;;;;;;21.94;53.68;100554.89;1672495;83;21062;-77
2021/05/26 08:25:52;;;;;;;6.15;4.05;;;;;;;22.05;52.89;100553.55;1690520;83;22186;-78
2021/05/26 08:28:18;;;;;;;4.00;3.60;;;;;;;22.19;53.02;100555.35;1685282;83;21002;-77
2021/05/26 08:30:45;;;;;;;4.95;3.60;;;;;;;22.34;52.90;100556.13;1688575;83;21091;-78
2021/05/26 08:33:13;;;;;;;6.50;3.42;;;;;;;22.43;51.76;100559.00;1686911;83;21014;-77
2021/05/26 08:35:39;;;;;;;7.75;4.03;;;;;;;22.50;52.84;100555.02;1680669;83;21514;-83
2021/05/26 08:38:05;;;;;;;5.12;3.67;;;;;;;22.62;52.43;100554.80;1670939;83;21800;-86
2021/05/26 08:40:32;;;;;;;4.87;3.65;;;;;;;22.64;51.83;100551.91;1683171;83;20987;-79
2021/05/26 08:43:00;;;;;;;3.87;3.47;;;;;;;22.69;52.21;100558.38;1684433;83;21122;-78
2021/05/26 08:45:26;;;;;;;6.40;4.10;;;;;;;22.78;51.83;100551.81;1683875;83;21591;-80
2021/05/26 08:47:53;;;;;;;4.22;3.80;;;;;;;22.88;52.88;100544.77;1687858;83;20972;-85
2021/05/26 08:50:20;;;;;;;5.97;4.90;;;;;;;23.01;53.07;100544.00;1690017;83;21790;-86
2021/05/26 08:52:47;;;;;;;7.00;3.95;;;;;;;23.11;52.48;100542.60;1693747;83;21067;-83
2021/05/26 08:55:14;;;;;;;4.97;3.52;;;;;;;23.18;51.39;100535.91;1688794;83;21125;-82
2021/05/26 08:57:40;;;;;;;6.47;3.70;;;;;;;23.30;49.81;100532.95;1677621;83;21027;-87
2021/05/26 09:00:08;;;;;;;5.33;3.67;;;;;;;23.36;51.25;100534.85;1690168;83;21038;-83
2021/05/26 09:02:34;;;;;;;7.40;3.17;;;;;;;23.50;51.33;100537.06;1681560;83;21760;-86
2021/05/26 09:05:01;;;;;;;9.10;3.67;;;;;;;23.61;49.23;100536.51;1697067;83;20995;-81
2021/05/26 09:07:30;;;;;;;5.45;3.70;;;;;;;23.60;49.51;100536.20;1699658;83;21075;-78
2021/05/26 09:09:58;;;;;;;7.67;3.30;;;;;;;23.65;49.77;100536.44;1696494;83;21063;-81
2021/05/26 09:12:40;;;;;;;5.08;3.80;;;;;;;23.73;49.30;100529.17;1681570;83;21051;-80
2021/05/26 09:15:20;;;;;;;6.58;3.70;;;;;;;23.85;49.39;100534.30;1687667;83;22219;-85
2021/05/26 09:17:51;;;;;;;5.08;3.30;;;;;;;23.92;48.38;100537.82;1686955;83;21082;-83
2021/05/26 09:20:29;;;;;;;7.25;3.60;;;;;;;23.84;49.19;100536.17;1673157;83;21612;-84
2021/05/26 09:23:18;;;;;;;8.43;3.40;;;;;;;23.79;49.12;100535.94;1687586;83;21095;-79
2021/05/26 09:25:52;;;;;;;4.10;3.10;;;;;;;23.83;48.66;100539.88;1685164;82;21174;-82
2021/05/26 09:28:30;;;;;;;4.50;3.55;;;;;;;23.85;48.87;100529.73;1719173;82;21697;-80
2021/05/26 09:31:09;;;;;;;3.95;3.58;;;;;;;23.91;48.92;100539.69;1691610;83;21115;-83
2021/05/26 09:33:43;;;;;;;5.75;3.30;;;;;;;23.98;48.28;100528.40;1680888;83;21031;-80
2021/05/26 09:36:19;;;;;;;3.35;3.05;;;;;;;24.13;47.63;100537.66;1670472;83;21019;-86
2021/05/26 09:38:56;;;;;;;8.15;3.37;;;;;;;24.20;47.60;100542.52;1703324;83;21637;-83
2021/05/26 09:41:30;;;;;;;4.10;3.10;;;;;;;24.22;46.80;100536.43;1680243;83;21769;-79
2021/05/26 09:44:00;;;;;;;5.50;3.00;;;;;;;24.21;45.67;100539.31;1686059;83;21496;-84
2021/05/26 09:46:35;;;;;;;3.77;3.25;;;;;;;24.17;46.86;100538.07;1695243;83;21038;-80
2021/05/26 09:49:20;;;;;;;5.28;3.30;;;;;;;24.29;47.04;100532.36;1680950;83;21216;-83
2021/05/26 09:51:58;;;;;;;4.00;3.05;;;;;;;24.46;46.83;100530.94;1687086;84;21090;-82
2021/05/26 09:54:28;;;;;;;6.42;3.15;;;;;;;24.65;45.88;100527.08;1675325;83;21796;-85
2021/05/26 09:57:07;;;;;;;5.15;3.20;;;;;;;24.81;45.90;100525.30;1671662;83;21051;-82
2021/05/26 09:59:36;;;;;;;5.50;2.67;;;;;;;24.92;45.05;100526.52;1675366;83;21062;-80
2021/05/26 10:02:06;;;;;;;8.75;3.12;;;;;;;24.98;44.81;100518.37;1700330;84;21560;-83
2021/05/26 10:04:30;;;;;;;4.53;3.10;;;;;;;25.05;44.58;100520.56;1680553;83;21078;-84
2021/05/26 10:07:15;;;;;;;7.12;3.70;;;;;;;25.08;45.00;100524.70;1635038;86;21800;-83
2021/05/26 10:09:45;;;;;;;8.13;3.42;;;;;;;25.06;43.73;100518.70;1637314;86;21115;-83
2021/05/26 10:12:16;;;;;;;4.33;3.27;;;;;;;24.97;45.56;100517.23;1611916;86;21155;-85
2021/05/26 10:14:44;;;;;;;5.00;3.20;;;;;;;25.10;44.89;100516.72;1639904;86;21103;-83
2021/05/26 10:17:17;;;;;;;6.22;3.85;;;;;;;25.26;45.04;100518.09;1641701;87;20988;-83
2021/05/26 10:19:41;;;;;;;3.83;3.17;;;;;;;25.36;46.49;100506.82;1622197;86;21421;-83
2021/05/26 10:22:09;;;;;;;4.00;3.20;;;;;;;25.50;44.20;100513.84;1678889;83;21082;-82
2021/05/26 10:24:36;;;;;;;4.97;2.90;;;;;;;25.56;42.97;100512.13;1702847;82;21561;-84
2021/05/26 10:27:02;;;;;;;6.70;3.05;;;;;;;25.61;43.83;100500.98;1683243;84;21541;-85
2021/05/26 10:29:33;;;;;;;9.45;3.35;;;;;;;25.81;43.01;100516.28;1681312;83;21538;-83
2021/05/26 10:32:11;;;;;;;6.90;3.40;;;;;;;25.81;41.40;100505.47;1671689;83;21763;-85
2021/05/26 10:34:51;;;;;;;5.55;3.75;;;;;;;25.72;42.21;100500.01;1667308;83;21055;-84
2021/05/26 10:37:39;;;;;;;3.90;3.17;;;;;;;25.77;42.12;100496.11;1674917;85;21115;-83
2021/05/26 10:40:32;;;;;;;3.40;2.80;;;;;;;25.79;41.41;100498.09;1681441;83;21123;-84
2021/05/26 10:43:23;;;;;;;11.18;3.40;;;;;;;25.68;41.21;100492.83;1701210;83;21087;-85
2021/05/26 10:45:51;;;;;;;4.58;2.92;;;;;;;25.59;42.85;100493.61;1681424;83;21794;-81
2021/05/26 10:48:43;;;;;;;4.62;3.08;;;;;;;25.73;41.82;100489.48;1697340;83;21130;-80
2021/05/26 10:51:15;;;;;;;6.12;3.05;;;;;;;25.88;42.41;100486.79;1694040;83;20976;-83
2021/05/26 10:53:42;;;;;;;7.08;3.42;;;;;;;25.94;42.07;100483.71;1695310;82;21063;-82
2021/05/26 10:56:31;;;;;;;5.45;3.70;;;;;;;25.96;41.69;100478.91;1690802;83;21071;-82
2021/05/26 10:59:14;;;;;;;5.25;4.30;;;;;;;26.09;41.57;100492.35;1681150;84;21840;-82
2021/05/26 11:02:10;;;;;;;3.20;2.77;;;;;;;26.19;40.58;100488.63;1676588;83;21438;-78
2021/05/26 11:04:39;;;;;;;3.45;2.77;;;;;;;26.21;40.66;100488.39;1695046;83;21525;-81
2021/05/26 11:07:25;;;;;;;4.37;3.35;;;;;;;26.33;39.82;100484.43;1705763;83;21098;-82
2021/05/26 11:10:01;;;;;;;4.42;2.60;;;;;;;26.44;40.39;100478.31;1688926;83;21067;-83
2021/05/26 11:12:28;;;;;;;5.35;2.75;;;;;;;26.59;40.07;100478.80;1694969;83;21770;-82
2021/05/26 11:14:55;;;;;;;3.10;2.62;;;;;;;26.67;39.20;100475.80;1679649;84;21090;-82
2021/05/26 11:17:30;;;;;;;3.75;2.83;;;;;;;26.70;39.31;100473.98;1682447;83;20998;-83
2021/05/26 11:20:10;;;;;;;7.37;2.85;;;;;;;26.85;38.39;100474.16;1698739;83;21058;-84
2021/05/26 11:22:36;;;;;;;6.65;2.80;;;;;;;27.00;39.84;100475.41;1651745;86;21027;-84
2021/05/26 11:25:07;;;;;;;3.62;2.80;;;;;;;27.21;37.36;100473.30;1709488;82;22134;-85
2021/05/26 11:27:35;;;;;;;3.90;2.33;;;;;;;27.25;37.85;100471.28;1722221;83;21047;-85
2021/05/26 11:30:04;;;;;;;3.00;2.40;;;;;;;27.27;38.11;100474.59;1722828;82;21040;-83
2021/05/26 11:32:31;;;;;;;4.53;3.15;;;;;;;27.33;37.14;100481.81;1690927;83;21035;-82
2021/05/26 11:35:03;;;;;;;5.42;2.33;;;;;;;27.46;36.85;100471.30;1658212;85;21090;-82
2021/05/26 11:37:38;;;;;;;2.97;2.40;;;;;;;27.55;36.51;100468.56;1674429;85;21847;-82